createdAt,value
2023-03-27T00:01:12.804Z,7.00
2023-03-27T00:03:40.628Z,7.00
2023-03-27T00:06:16.303Z,7.10
2023-03-27T00:08:44.547Z,7.10
2023-03-27T00:11:12.083Z,7.10
2023-03-27T00:13:49.177Z,7.00
2023-03-27T00:16:22.459Z,7.00
2023-03-27T00:18:49.814Z,7.00
2023-03-27T00:21:17.220Z,7.00
2023-03-27T00:23:44.569Z,6.90
2023-03-27T00:26:12.497Z,6.90
2023-03-27T00:28:39.925Z,6.90
2023-03-27T00:31:11.647Z,6.90
2023-03-27T00:33:39.426Z,6.90
2023-03-27T00:36:07.198Z,6.90
2023-03-27T00:38:34.521Z,7.00
2023-03-27T00:41:02.281Z,7.00
2023-03-27T00:43:34.034Z,7.00
2023-03-27T00:46:31.818Z,7.00
2023-03-27T00:49:01.826Z,7.00
2023-03-27T00:51:29.190Z,7.00
2023-03-27T00:53:56.648Z,7.10
2023-03-27T00:56:24.194Z,7.20
2023-03-27T00:58:57.201Z,7.20
2023-03-27T01:01:27.175Z,7.20
2023-03-27T01:03:54.872Z,7.20
2023-03-27T01:06:22.441Z,7.20
2023-03-27T01:08:49.853Z,7.30
2023-03-27T01:11:39.352Z,7.30
2023-03-27T01:14:27.077Z,7.30
2023-03-27T01:17:00.344Z,7.30
2023-03-27T01:19:48.766Z,7.20
2023-03-27T01:22:27.927Z,7.20
2023-03-27T01:25:17.252Z,7.20
2023-03-27T01:28:10.645Z,7.30
2023-03-27T01:30:57.109Z,7.20
2023-03-27T01:33:46.626Z,7.20
2023-03-27T01:36:22.245Z,7.20
2023-03-27T01:39:19.808Z,7.00
2023-03-27T01:42:01.621Z,7.00
2023-03-27T01:44:45.828Z,7.00
2023-03-27T01:47:40.984Z,7.00
2023-03-27T01:50:17.594Z,6.90
2023-03-27T01:52:49.462Z,6.90
2023-03-27T01:55:19.459Z,6.90
2023-03-27T01:57:50.656Z,6.90
2023-03-27T02:00:22.542Z,6.90
2023-03-27T02:02:56.471Z,6.90
2023-03-27T02:05:31.962Z,6.80
2023-03-27T02:08:03.996Z,6.80
2023-03-27T02:10:34.077Z,6.80
2023-03-27T02:13:21.424Z,6.80
2023-03-27T02:15:49.936Z,6.80
2023-03-27T02:18:23.685Z,6.80
2023-03-27T02:20:51.033Z,6.80
2023-03-27T02:23:18.424Z,6.70
2023-03-27T02:25:46.078Z,6.70
2023-03-27T02:28:34.970Z,6.70
2023-03-27T02:31:32.632Z,6.70
2023-03-27T02:34:02.120Z,6.70
2023-03-27T02:36:41.565Z,6.80
2023-03-27T02:39:51.418Z,6.70
2023-03-27T02:42:55.919Z,6.70
2023-03-27T02:45:41.382Z,6.70
2023-03-27T02:48:12.217Z,6.70
2023-03-27T02:50:48.762Z,6.60
2023-03-27T02:53:17.499Z,6.60
2023-03-27T02:55:50.563Z,6.50
2023-03-27T02:58:20.883Z,6.50
2023-03-27T03:00:58.221Z,6.50
2023-03-27T03:03:57.601Z,6.40
2023-03-27T03:06:45.492Z,6.40
2023-03-27T03:09:14.903Z,6.30
2023-03-27T03:11:50.137Z,6.30
2023-03-27T03:14:18.941Z,6.30
2023-03-27T03:16:46.666Z,6.30
2023-03-27T03:19:14.761Z,6.30
2023-03-27T03:21:42.572Z,6.30
2023-03-27T03:24:12.964Z,6.40
2023-03-27T03:26:40.374Z,6.40
2023-03-27T03:29:07.834Z,6.40
2023-03-27T03:31:44.415Z,6.40
2023-03-27T03:34:16.764Z,6.40
2023-03-27T03:36:49.231Z,6.30
2023-03-27T03:39:19.778Z,6.40
2023-03-27T03:41:49.997Z,6.30
2023-03-27T03:44:17.591Z,6.30
2023-03-27T03:46:45.024Z,6.20
2023-03-27T03:49:12.501Z,6.20
2023-03-27T03:51:39.901Z,6.20
2023-03-27T03:54:09.136Z,6.10
2023-03-27T03:56:37.173Z,6.10
2023-03-27T03:59:04.609Z,6.10
2023-03-27T04:01:33.617Z,6.10
2023-03-27T04:04:02.664Z,6.10
2023-03-27T04:06:47.537Z,6.10
2023-03-27T04:09:15.110Z,6.00
2023-03-27T04:11:57.728Z,6.00
2023-03-27T04:14:42.219Z,6.00
2023-03-27T04:17:28.590Z,6.00
2023-03-27T04:19:57.518Z,6.00
2023-03-27T04:22:26.275Z,5.90
2023-03-27T04:24:53.829Z,6.00
2023-03-27T04:27:23.097Z,6.00
2023-03-27T04:30:02.333Z,6.10
2023-03-27T04:33:00.031Z,6.00
2023-03-27T04:36:06.016Z,6.10
2023-03-27T04:38:58.101Z,6.10
2023-03-27T04:41:29.775Z,6.20
2023-03-27T04:43:57.456Z,6.20
2023-03-27T04:46:24.981Z,6.10
2023-03-27T04:48:59.049Z,6.10
2023-03-27T04:51:48.008Z,6.10
2023-03-27T04:54:15.670Z,6.00
2023-03-27T04:56:46.552Z,5.90
2023-03-27T04:59:15.632Z,5.90
2023-03-27T05:01:44.723Z,5.80
2023-03-27T05:04:32.491Z,5.80
2023-03-27T05:07:15.710Z,5.70
2023-03-27T05:09:43.066Z,5.80
2023-03-27T05:12:10.937Z,5.80
2023-03-27T05:14:49.097Z,5.80
2023-03-27T05:17:33.138Z,5.80
2023-03-27T05:20:00.832Z,5.80
2023-03-27T05:22:28.183Z,5.70
2023-03-27T05:25:05.275Z,5.70
2023-03-27T05:27:32.706Z,5.60
2023-03-27T05:30:00.437Z,5.60
2023-03-27T05:32:27.776Z,5.60
2023-03-27T05:35:18.184Z,5.60
2023-03-27T05:37:47.715Z,5.60
2023-03-27T05:40:28.076Z,5.60
2023-03-27T05:42:56.140Z,5.60
2023-03-27T05:45:27.550Z,5.50
2023-03-27T05:47:57.001Z,5.50
2023-03-27T05:50:28.272Z,5.50
2023-03-27T05:53:16.118Z,5.40
2023-03-27T05:56:02.945Z,5.50
2023-03-27T05:58:38.694Z,5.50
2023-03-27T06:01:07.303Z,5.40
2023-03-27T06:03:35.669Z,5.30
2023-03-27T06:06:11.432Z,5.30
2023-03-27T06:08:39.888Z,5.30
2023-03-27T06:11:10.274Z,5.20
2023-03-27T06:13:44.226Z,5.20
2023-03-27T06:16:15.674Z,5.20
2023-03-27T06:18:43.044Z,5.10
2023-03-27T06:21:12.346Z,5.10
2023-03-27T06:23:40.042Z,5.00
2023-03-27T06:26:12.304Z,4.90
2023-03-27T06:28:39.838Z,5.00
2023-03-27T06:31:08.863Z,5.00
2023-03-27T06:33:55.104Z,5.10
2023-03-27T06:36:42.635Z,5.00
2023-03-27T06:39:12.048Z,5.00
2023-03-27T06:41:42.936Z,5.10
2023-03-27T06:44:19.729Z,5.10
2023-03-27T06:47:01.455Z,5.00
2023-03-27T06:49:33.495Z,4.90
2023-03-27T06:52:09.577Z,4.90
2023-03-27T06:54:36.967Z,4.90
2023-03-27T06:57:04.493Z,4.70
2023-03-27T07:00:00.269Z,4.70
2023-03-27T07:03:09.732Z,4.70
2023-03-27T07:05:57.641Z,4.70
2023-03-27T07:08:28.444Z,4.60
2023-03-27T07:11:10.764Z,4.60
2023-03-27T07:13:43.787Z,4.70
2023-03-27T07:16:20.702Z,4.70
2023-03-27T07:18:48.249Z,4.80
2023-03-27T07:21:15.967Z,4.80
2023-03-27T07:23:43.818Z,4.80
2023-03-27T07:26:13.890Z,4.80
2023-03-27T07:29:00.947Z,4.70
2023-03-27T07:31:45.111Z,4.80
2023-03-27T07:34:17.944Z,4.80
2023-03-27T07:37:03.720Z,4.70
2023-03-27T07:39:32.202Z,4.70
2023-03-27T07:42:00.147Z,4.70
2023-03-27T07:44:33.100Z,4.60
2023-03-27T07:47:04.873Z,4.60
2023-03-27T07:49:40.107Z,4.60
2023-03-27T07:52:14.726Z,4.60
2023-03-27T07:54:52.178Z,4.50
2023-03-27T07:57:22.819Z,4.40
2023-03-27T07:59:54.494Z,4.40
2023-03-27T08:02:31.884Z,4.40
2023-03-27T08:04:59.757Z,4.30
2023-03-27T08:07:27.129Z,4.30
2023-03-27T08:09:58.549Z,4.30
2023-03-27T08:12:26.029Z,4.30
2023-03-27T08:15:00.146Z,4.40
2023-03-27T08:17:30.430Z,4.40
2023-03-27T08:19:58.297Z,4.40
2023-03-27T08:22:26.067Z,4.50
2023-03-27T08:25:16.803Z,4.60
2023-03-27T08:27:44.902Z,4.70
2023-03-27T08:30:16.708Z,4.90
2023-03-27T08:32:44.726Z,5.00
2023-03-27T08:35:12.559Z,5.10
2023-03-27T08:37:41.548Z,5.20
2023-03-27T08:40:34.123Z,5.30
2023-03-27T08:43:22.711Z,5.20
2023-03-27T08:46:01.890Z,5.20
2023-03-27T08:48:31.315Z,5.20
2023-03-27T08:51:12.270Z,5.10
2023-03-27T08:53:44.145Z,5.00
2023-03-27T08:56:15.971Z,4.80
2023-03-27T08:58:45.410Z,4.70
2023-03-27T09:01:45.432Z,4.60
2023-03-27T09:04:39.466Z,4.60
2023-03-27T09:07:19.295Z,4.60
2023-03-27T09:10:17.481Z,4.70
2023-03-27T09:13:09.890Z,4.70
2023-03-27T09:15:42.586Z,4.70
2023-03-27T09:18:27.943Z,4.60
2023-03-27T09:20:57.813Z,4.60
2023-03-27T09:23:31.033Z,4.60
2023-03-27T09:26:28.721Z,4.70
2023-03-27T09:29:25.957Z,4.70
2023-03-27T09:32:01.956Z,4.80
2023-03-27T09:34:32.541Z,4.80
2023-03-27T09:37:00.835Z,4.90
2023-03-27T09:39:33.932Z,4.90
2023-03-27T09:42:26.651Z,4.90
2023-03-27T09:44:56.849Z,5.10
2023-03-27T09:47:32.071Z,5.10
2023-03-27T09:50:18.387Z,5.10
2023-03-27T09:53:10.003Z,5.00
2023-03-27T09:55:59.598Z,5.20
2023-03-27T09:58:28.211Z,5.20
2023-03-27T10:01:16.297Z,5.30
2023-03-27T10:03:56.750Z,5.30
2023-03-27T10:06:48.030Z,5.30
2023-03-27T10:09:28.188Z,5.40
2023-03-27T10:12:07.344Z,5.60
2023-03-27T10:14:38.674Z,5.70
2023-03-27T10:17:07.067Z,5.70
2023-03-27T10:19:37.155Z,5.80
2023-03-27T10:22:38.908Z,5.90
2023-03-27T10:25:17.910Z,5.90
2023-03-27T10:28:29.534Z,5.90
2023-03-27T10:31:33.696Z,5.90
2023-03-27T10:34:06.756Z,5.90
2023-03-27T10:36:56.929Z,5.90
2023-03-27T10:39:28.077Z,5.90
2023-03-27T10:42:10.717Z,6.00
2023-03-27T10:44:43.554Z,5.90
2023-03-27T10:47:19.152Z,5.80
2023-03-27T10:50:12.182Z,5.80
2023-03-27T10:52:43.904Z,5.90
2023-03-27T10:55:36.638Z,6.00
2023-03-27T10:58:05.505Z,6.00
2023-03-27T11:00:40.959Z,6.20
2023-03-27T11:03:25.610Z,6.30
2023-03-27T11:05:58.635Z,6.20
2023-03-27T11:08:54.635Z,6.20
2023-03-27T11:11:31.012Z,6.10
2023-03-27T11:14:02.566Z,6.00
2023-03-27T11:16:43.297Z,6.10
2023-03-27T11:19:42.960Z,6.00
2023-03-27T11:22:32.633Z,6.10
2023-03-27T11:25:21.596Z,6.10
2023-03-27T11:28:01.440Z,6.30
2023-03-27T11:30:45.629Z,6.50
2023-03-27T11:33:27.718Z,6.60
2023-03-27T11:36:04.448Z,6.60
2023-03-27T11:38:57.978Z,6.40
2023-03-27T11:41:27.027Z,6.40
2023-03-27T11:43:54.322Z,6.40
2023-03-27T11:47:26.915Z,6.50
2023-03-27T11:50:35.193Z,6.70
2023-03-27T11:53:41.219Z,7.00
2023-03-27T11:56:52.219Z,7.40
2023-03-27T11:59:38.468Z,7.60
2023-03-27T12:02:24.414Z,7.40
2023-03-27T12:05:20.164Z,7.20
2023-03-27T12:08:22.810Z,6.90
2023-03-27T12:10:52.700Z,6.60
2023-03-27T12:14:14.049Z,6.50
2023-03-27T12:17:20.006Z,6.30
2023-03-27T12:20:24.598Z,6.30
2023-03-27T12:23:03.063Z,6.40
2023-03-27T12:26:20.003Z,6.50
2023-03-27T12:28:58.436Z,6.70
2023-03-27T12:32:07.973Z,6.80
2023-03-27T12:34:53.374Z,6.90
2023-03-27T12:37:31.036Z,6.90
2023-03-27T12:39:59.921Z,6.90
2023-03-27T12:42:44.171Z,6.90
2023-03-27T12:45:24.609Z,6.80
2023-03-27T12:48:10.658Z,6.80
2023-03-27T12:50:44.361Z,6.80
2023-03-27T12:53:20.875Z,6.80
2023-03-27T12:56:16.249Z,6.90
2023-03-27T12:58:45.807Z,6.80
2023-03-27T13:01:38.856Z,6.80
2023-03-27T13:04:29.744Z,6.80
2023-03-27T13:07:16.431Z,6.60
2023-03-27T13:10:53.833Z,6.60
2023-03-27T13:13:21.782Z,6.70
2023-03-27T13:15:55.686Z,6.80
2023-03-27T13:19:03.698Z,6.90
2023-03-27T13:21:56.610Z,6.80
2023-03-27T13:24:42.972Z,6.80
2023-03-27T13:27:44.644Z,6.80
2023-03-27T13:30:47.186Z,6.70
2023-03-27T13:33:45.354Z,6.70
2023-03-27T13:36:20.674Z,6.70
2023-03-27T13:38:55.023Z,6.80
2023-03-27T13:41:43.732Z,6.90
2023-03-27T13:44:52.105Z,6.90
2023-03-27T13:47:59.515Z,7.10
2023-03-27T13:50:54.375Z,7.10
2023-03-27T13:54:00.121Z,7.10
2023-03-27T13:57:05.740Z,7.10
2023-03-27T14:00:15.528Z,7.20
2023-03-27T14:03:22.195Z,7.20
2023-03-27T14:06:06.068Z,7.30
2023-03-27T14:09:25.483Z,7.30
2023-03-27T14:12:35.935Z,7.20
2023-03-27T14:15:25.266Z,7.20
2023-03-27T14:18:41.050Z,7.10
2023-03-27T14:21:12.053Z,7.10
2023-03-27T14:23:53.051Z,7.20
2023-03-27T14:26:33.946Z,7.10
2023-03-27T14:29:02.114Z,6.80
2023-03-27T14:31:44.404Z,6.50
2023-03-27T14:34:30.334Z,6.20
2023-03-27T14:37:31.087Z,5.90
2023-03-27T14:40:18.344Z,5.70
2023-03-27T14:42:46.861Z,5.40
2023-03-27T14:45:20.648Z,5.20
2023-03-27T14:47:51.706Z,5.10
2023-03-27T14:50:20.162Z,5.10
2023-03-27T14:52:55.516Z,5.20
2023-03-27T14:55:39.966Z,5.20
2023-03-27T14:58:46.565Z,5.50
2023-03-27T15:01:17.172Z,5.70
2023-03-27T15:03:49.776Z,5.80
2023-03-27T15:06:20.981Z,6.00
2023-03-27T15:08:55.790Z,6.10
2023-03-27T15:11:59.071Z,6.20
2023-03-27T15:14:32.192Z,6.30
2023-03-27T15:17:07.267Z,6.40
2023-03-27T15:19:53.724Z,6.40
2023-03-27T15:22:35.262Z,6.20
2023-03-27T15:25:05.548Z,6.10
2023-03-27T15:27:35.229Z,6.00
2023-03-27T15:30:08.168Z,6.10
2023-03-27T15:32:44.692Z,6.10
2023-03-27T15:35:21.805Z,6.10
2023-03-27T15:37:49.150Z,6.30
2023-03-27T15:40:36.652Z,6.40
2023-03-27T15:43:06.696Z,6.50
2023-03-27T15:45:41.432Z,6.50
2023-03-27T15:48:23.222Z,6.60
2023-03-27T15:51:04.330Z,6.60
2023-03-27T15:53:46.996Z,6.70
2023-03-27T15:56:21.842Z,6.70
2023-03-27T15:58:55.040Z,6.80
2023-03-27T16:01:31.102Z,6.80
2023-03-27T16:04:03.333Z,6.70
2023-03-27T16:06:40.860Z,6.60
2023-03-27T16:09:19.788Z,6.60
2023-03-27T16:11:47.697Z,6.50
2023-03-27T16:14:36.839Z,6.40
2023-03-27T16:17:14.812Z,6.40
2023-03-27T16:19:58.311Z,6.30
2023-03-27T16:22:30.581Z,6.30
2023-03-27T16:24:58.642Z,6.20
2023-03-27T16:27:28.716Z,6.20
2023-03-27T16:29:56.239Z,6.20
2023-03-27T16:32:23.772Z,6.10
2023-03-27T16:34:54.168Z,6.10
2023-03-27T16:37:23.101Z,6.00
2023-03-27T16:39:50.611Z,6.10
2023-03-27T16:42:20.476Z,6.10
2023-03-27T16:44:48.835Z,6.10
2023-03-27T16:47:16.535Z,5.90
2023-03-27T16:49:43.953Z,5.40
2023-03-27T16:52:11.456Z,4.90
2023-03-27T16:54:38.834Z,4.50
2023-03-27T16:57:06.195Z,4.10
2023-03-27T16:59:33.556Z,4.00
2023-03-27T17:02:01.170Z,3.90
2023-03-27T17:04:28.673Z,3.80
2023-03-27T17:06:56.031Z,3.80
2023-03-27T17:09:23.372Z,3.80
2023-03-27T17:11:50.965Z,3.80
2023-03-27T17:14:18.316Z,3.80
2023-03-27T17:16:45.900Z,3.90
2023-03-27T17:19:13.404Z,3.90
2023-03-27T17:21:40.741Z,3.90
2023-03-27T17:24:09.134Z,3.90
2023-03-27T17:26:36.711Z,3.90
2023-03-27T17:29:06.007Z,3.90
2023-03-27T17:31:33.920Z,3.90
2023-03-27T17:34:01.392Z,3.90
2023-03-27T17:36:40.168Z,4.00
2023-03-27T17:39:10.401Z,4.00
2023-03-27T17:41:37.729Z,4.00
2023-03-27T17:44:07.412Z,4.00
2023-03-27T17:46:35.505Z,4.00
2023-03-27T17:49:02.904Z,4.10
2023-03-27T17:51:30.296Z,4.10
2023-03-27T17:53:57.859Z,3.90
2023-03-27T17:56:25.385Z,3.80
2023-03-27T17:58:53.401Z,3.60
2023-03-27T18:01:21.641Z,3.50
2023-03-27T18:03:49.412Z,3.40
2023-03-27T18:06:17.669Z,3.50
2023-03-27T18:08:45.798Z,3.50
2023-03-27T18:11:14.252Z,3.50
2023-03-27T18:13:42.425Z,3.50
2023-03-27T18:16:13.003Z,3.50
2023-03-27T18:18:40.410Z,3.60
2023-03-27T18:21:08.746Z,3.70
2023-03-27T18:23:38.384Z,3.70
2023-03-27T18:26:13.626Z,3.80
2023-03-27T18:28:40.959Z,3.80
2023-03-27T18:31:15.828Z,3.90
2023-03-27T18:33:43.203Z,3.90
2023-03-27T18:36:11.881Z,3.90
2023-03-27T18:38:40.306Z,3.90
2023-03-27T18:41:08.456Z,4.00
2023-03-27T18:43:36.170Z,4.00
2023-03-27T18:46:05.358Z,4.10
2023-03-27T18:48:33.057Z,4.00
2023-03-27T18:51:02.711Z,4.00
2023-03-27T18:53:30.880Z,3.90
2023-03-27T18:55:58.783Z,3.80
2023-03-27T18:58:27.672Z,3.70
2023-03-27T19:00:56.825Z,3.60
2023-03-27T19:03:26.255Z,3.60
2023-03-27T19:05:53.763Z,3.60
2023-03-27T19:08:21.367Z,3.60
2023-03-27T19:10:48.958Z,3.60
2023-03-27T19:13:34.731Z,3.60
2023-03-27T19:16:31.316Z,3.60
2023-03-27T19:19:17.011Z,3.60
2023-03-27T19:21:53.176Z,3.60
2023-03-27T19:24:27.066Z,3.60
2023-03-27T19:26:54.398Z,3.60
2023-03-27T19:29:21.712Z,3.70
2023-03-27T19:31:51.805Z,3.70
2023-03-27T19:34:21.882Z,3.70
2023-03-27T19:36:52.235Z,3.70
2023-03-27T19:39:19.908Z,3.70
2023-03-27T19:41:48.551Z,3.60
2023-03-27T19:44:16.610Z,3.60
2023-03-27T19:46:44.696Z,3.60
2023-03-27T19:49:16.171Z,3.50
2023-03-27T19:51:50.336Z,3.50
2023-03-27T19:54:17.791Z,3.40
2023-03-27T19:56:45.430Z,3.40
2023-03-27T19:59:20.727Z,3.40
2023-03-27T20:01:55.542Z,3.40
2023-03-27T20:04:22.889Z,3.40
2023-03-27T20:06:50.206Z,3.40
2023-03-27T20:09:18.883Z,3.30
2023-03-27T20:11:47.136Z,3.30
2023-03-27T20:14:14.481Z,3.30
2023-03-27T20:16:41.908Z,3.30
2023-03-27T20:19:09.423Z,3.30
2023-03-27T20:21:40.310Z,3.20
2023-03-27T20:24:12.962Z,3.20
2023-03-27T20:26:48.297Z,3.20
2023-03-27T20:29:22.770Z,3.20
2023-03-27T20:31:50.335Z,3.20
2023-03-27T20:34:19.414Z,3.20
2023-03-27T20:36:47.578Z,3.20
2023-03-27T20:39:47.432Z,3.20
2023-03-27T20:42:15.535Z,3.20
2023-03-27T20:44:46.687Z,3.20
2023-03-27T20:47:14.978Z,3.10
2023-03-27T20:49:45.757Z,3.10
2023-03-27T20:52:14.876Z,3.10
2023-03-27T20:54:42.316Z,3.10
2023-03-27T20:57:11.679Z,3.10
2023-03-27T20:59:39.248Z,3.10
2023-03-27T21:02:06.770Z,3.10
2023-03-27T21:04:34.260Z,3.10
2023-03-27T21:07:01.699Z,3.10
2023-03-27T21:09:29.100Z,3.10
2023-03-27T21:11:56.457Z,3.10
2023-03-27T21:14:23.833Z,3.10
2023-03-27T21:16:51.429Z,3.10
2023-03-27T21:19:22.059Z,3.10
2023-03-27T21:21:50.175Z,3.10
2023-03-27T21:24:18.006Z,3.10
2023-03-27T21:26:47.078Z,3.10
2023-03-27T21:29:15.639Z,3.00
2023-03-27T21:31:43.127Z,3.10
2023-03-27T21:34:10.859Z,3.10
2023-03-27T21:36:38.756Z,3.00
2023-03-27T21:39:06.648Z,3.00
2023-03-27T21:41:34.097Z,3.00
2023-03-27T21:44:01.483Z,3.00
2023-03-27T21:46:28.858Z,3.00
2023-03-27T21:48:56.261Z,3.10
2023-03-27T21:51:23.605Z,3.10
2023-03-27T21:53:51.057Z,3.10
2023-03-27T21:56:18.388Z,3.10
2023-03-27T21:58:45.877Z,3.10
2023-03-27T22:01:13.269Z,3.10
2023-03-27T22:03:40.705Z,3.10
2023-03-27T22:06:12.276Z,3.10
2023-03-27T22:08:41.477Z,3.10
2023-03-27T22:11:09.045Z,3.10
2023-03-27T22:13:37.394Z,3.10
2023-03-27T22:16:12.355Z,3.00
2023-03-27T22:18:39.987Z,3.10
2023-03-27T22:21:18.667Z,3.10
2023-03-27T22:23:46.403Z,3.10
2023-03-27T22:26:13.866Z,3.00
2023-03-27T22:28:41.585Z,3.00
2023-03-27T22:31:09.240Z,3.00
2023-03-27T22:33:37.136Z,3.10
2023-03-27T22:36:05.649Z,3.10
2023-03-27T22:38:33.624Z,3.10
2023-03-27T22:41:01.100Z,3.00
2023-03-27T22:43:28.806Z,3.00
2023-03-27T22:45:56.499Z,3.00
2023-03-27T22:48:23.897Z,3.00
2023-03-27T22:50:55.361Z,3.00
2023-03-27T22:53:23.138Z,3.00
2023-03-27T22:55:51.021Z,2.90
2023-03-27T22:58:18.397Z,3.00
2023-03-27T23:00:46.452Z,3.00
2023-03-27T23:03:14.270Z,3.10
2023-03-27T23:05:42.648Z,3.10
2023-03-27T23:08:10.095Z,3.10
2023-03-27T23:10:37.420Z,3.00
2023-03-27T23:13:04.881Z,3.10
2023-03-27T23:15:32.169Z,3.10
2023-03-27T23:17:59.618Z,3.10
2023-03-27T23:20:27.338Z,3.10
2023-03-27T23:22:54.982Z,3.10
2023-03-27T23:25:22.320Z,3.20
2023-03-27T23:27:49.640Z,3.20
2023-03-27T23:30:17.094Z,3.20
2023-03-27T23:32:44.497Z,3.20
2023-03-27T23:35:12.187Z,3.20
2023-03-27T23:37:39.575Z,3.10
2023-03-27T23:40:07.632Z,3.10
2023-03-27T23:42:34.927Z,3.20
2023-03-27T23:45:02.250Z,3.20
2023-03-27T23:47:29.618Z,3.10
2023-03-27T23:49:57.115Z,3.10
2023-03-27T23:52:24.525Z,3.10
2023-03-27T23:54:51.844Z,3.10
2023-03-27T23:57:19.236Z,3.10
2023-03-27T23:59:46.544Z,3.10
